createdAt,value
2022-08-06T00:01:54.645Z,6.10
2022-08-06T00:04:42.845Z,6.50
2022-08-06T00:07:18.430Z,6.30
2022-08-06T00:10:10.222Z,6.80
2022-08-06T00:12:50.140Z,6.95
2022-08-06T00:16:09.111Z,6.50
2022-08-06T00:20:58.844Z,6.20
2022-08-06T00:23:55.011Z,5.87
2022-08-06T00:26:51.479Z,6.18
2022-08-06T00:30:05.474Z,6.63
2022-08-06T00:32:55.164Z,6.65
2022-08-06T00:35:31.267Z,6.40
2022-08-06T00:38:19.161Z,6.07
2022-08-06T00:40:58.742Z,6.30
2022-08-06T00:43:46.174Z,5.05
2022-08-06T00:46:20.246Z,5.95
2022-08-06T00:49:11.515Z,5.60
2022-08-06T00:51:51.116Z,5.55
2022-08-06T00:54:39.213Z,5.32
2022-08-06T00:57:14.289Z,5.40
2022-08-06T01:00:02.161Z,5.90
2022-08-06T01:02:43.245Z,6.55
2022-08-06T01:06:07.045Z,4.45
2022-08-06T01:08:28.295Z,5.10
2022-08-06T01:11:16.164Z,4.93
2022-08-06T01:14:03.685Z,4.85
2022-08-06T01:16:56.197Z,5.80
2022-08-06T01:21:20.149Z,4.13
2022-08-06T01:22:47.184Z,3.83
2022-08-06T01:25:51.177Z,3.72
2022-08-06T01:28:51.980Z,3.40
2022-08-06T01:31:56.203Z,3.53
2022-08-06T01:34:58.188Z,2.50
2022-08-06T01:37:53.190Z,3.38
2022-08-06T01:40:36.384Z,3.47
2022-08-06T01:44:05.854Z,2.80
2022-08-06T01:46:21.254Z,3.78
2022-08-06T01:49:27.488Z,3.50
2022-08-06T01:52:15.045Z,3.67
2022-08-06T01:55:06.212Z,3.40
2022-08-06T01:58:08.537Z,2.78
2022-08-06T02:00:54.198Z,2.70
2022-08-06T02:03:50.148Z,2.70
2022-08-06T02:06:49.371Z,2.63
2022-08-06T02:09:27.906Z,2.13
2022-08-06T02:12:27.272Z,2.50
2022-08-06T02:18:06.356Z,2.50
2022-08-06T02:20:48.354Z,2.65
2022-08-06T02:23:41.201Z,1.67
2022-08-06T02:26:26.301Z,1.88
2022-08-06T02:29:14.630Z,2.30
2022-08-06T02:32:02.277Z,1.98
2022-08-06T02:34:43.242Z,1.73
2022-08-06T02:38:02.498Z,1.67
2022-08-06T02:40:44.228Z,1.58
2022-08-06T02:43:34.208Z,1.42
2022-08-06T02:46:37.604Z,1.65
2022-08-06T02:49:29.457Z,1.63
2022-08-06T02:52:11.431Z,2.05
2022-08-06T02:55:03.214Z,1.60
2022-08-06T02:57:53.221Z,1.60
2022-08-06T03:00:40.292Z,1.40
2022-08-06T03:03:34.936Z,1.90
2022-08-06T03:06:17.299Z,1.50
2022-08-06T03:09:02.428Z,1.33
2022-08-06T03:11:44.561Z,1.40
2022-08-06T03:15:04.485Z,1.67
2022-08-06T03:17:31.319Z,1.48
2022-08-06T03:20:17.233Z,1.63
2022-08-06T03:23:00.503Z,2.25
2022-08-06T03:25:44.227Z,1.30
2022-08-06T03:28:28.312Z,1.50
2022-08-06T03:31:09.240Z,1.95
2022-08-06T03:33:54.065Z,1.58
2022-08-06T03:36:36.231Z,1.65
2022-08-06T03:39:23.383Z,1.23
2022-08-06T03:42:08.390Z,1.70
2022-08-06T03:44:57.261Z,1.58
2022-08-06T03:47:49.506Z,1.65
2022-08-06T03:50:46.317Z,1.20
2022-08-06T03:53:32.257Z,1.20
2022-08-06T03:56:29.831Z,1.30
2022-08-06T03:59:12.241Z,1.00
2022-08-06T04:02:04.246Z,1.40
2022-08-06T04:04:38.773Z,1.40
2022-08-06T04:07:53.651Z,1.20
2022-08-06T04:10:53.029Z,1.55
2022-08-06T04:14:06.751Z,1.35
2022-08-06T04:16:40.633Z,1.30
2022-08-06T04:19:32.290Z,1.17
2022-08-06T04:23:05.198Z,1.35
2022-08-06T04:25:14.346Z,1.90
2022-08-06T04:27:55.246Z,1.27
2022-08-06T04:30:38.474Z,1.40
2022-08-06T04:33:34.579Z,1.02
2022-08-06T04:36:17.760Z,2.10
2022-08-06T04:39:15.308Z,1.25
2022-08-06T04:41:56.898Z,1.20
2022-08-06T04:44:44.671Z,1.05
2022-08-06T04:47:42.149Z,1.48
2022-08-06T04:50:27.278Z,1.10
2022-08-06T04:53:56.990Z,1.20
2022-08-06T04:56:49.534Z,1.17
2022-08-06T04:59:24.345Z,1.23
2022-08-06T05:02:21.400Z,1.33
2022-08-06T05:04:59.190Z,1.02
2022-08-06T05:07:52.429Z,1.23
2022-08-06T05:10:36.293Z,1.08
2022-08-06T05:13:39.290Z,1.45
2022-08-06T05:16:27.271Z,1.20
2022-08-06T05:19:20.365Z,0.93
2022-08-06T05:22:13.032Z,0.80
2022-08-06T05:25:09.825Z,1.20
2022-08-06T05:28:11.291Z,1.20
2022-08-06T05:30:57.556Z,1.13
2022-08-06T05:33:46.273Z,1.38
2022-08-06T05:36:20.387Z,1.17
2022-08-06T05:39:57.690Z,1.10
2022-08-06T05:42:11.581Z,1.20
2022-08-06T05:45:00.674Z,1.15
2022-08-06T05:47:55.529Z,1.42
2022-08-06T05:50:50.288Z,1.45
2022-08-06T05:54:03.020Z,1.30
2022-08-06T05:56:54.325Z,1.40
2022-08-06T05:59:57.133Z,1.10
2022-08-06T06:02:41.311Z,1.27
2022-08-06T06:06:03.567Z,1.85
2022-08-06T06:08:38.154Z,1.52
2022-08-06T06:11:18.386Z,1.15
2022-08-06T06:14:02.296Z,1.13
2022-08-06T06:16:57.287Z,1.23
2022-08-06T06:20:01.389Z,1.10
2022-08-06T06:23:12.303Z,1.23
2022-08-06T06:26:32.852Z,1.33
2022-08-06T06:30:02.737Z,1.10
2022-08-06T06:32:31.362Z,1.00
2022-08-06T06:35:32.398Z,1.10
2022-08-06T06:38:26.159Z,1.23
2022-08-06T06:41:44.828Z,2.33
2022-08-06T06:45:03.757Z,1.35
2022-08-06T06:47:59.520Z,1.13
2022-08-06T06:50:50.318Z,1.10
2022-08-06T06:54:04.688Z,1.10
2022-08-06T06:56:44.317Z,1.10
2022-08-06T06:59:26.296Z,1.02
2022-08-06T07:02:36.351Z,1.20
2022-08-06T07:05:23.992Z,1.38
2022-08-06T07:08:42.044Z,1.10
2022-08-06T07:11:40.133Z,1.20
2022-08-06T07:14:26.408Z,1.10
2022-08-06T07:17:59.949Z,1.20
2022-08-06T07:20:18.406Z,1.10
2022-08-06T07:24:07.598Z,1.00
2022-08-06T07:26:10.343Z,1.15
2022-08-06T07:29:05.323Z,1.10
2022-08-06T07:31:56.326Z,1.00
2022-08-06T07:34:40.323Z,1.77
2022-08-06T07:37:39.336Z,1.40
2022-08-06T07:40:18.411Z,1.30
2022-08-06T07:43:24.119Z,1.23
2022-08-06T07:46:04.449Z,1.17
2022-08-06T07:49:00.347Z,1.27
2022-08-06T07:51:39.524Z,1.20
2022-08-06T07:54:37.353Z,1.58
2022-08-06T07:57:14.799Z,1.92
2022-08-06T08:00:03.360Z,1.33
2022-08-06T08:02:39.374Z,1.10
2022-08-06T08:06:00.804Z,1.27
2022-08-06T08:08:42.363Z,1.20
2022-08-06T08:11:37.839Z,1.70
2022-08-06T08:14:32.348Z,1.13
2022-08-06T08:17:12.432Z,1.27
2022-08-06T08:19:55.387Z,1.02
2022-08-06T08:22:36.425Z,1.13
2022-08-06T08:25:43.124Z,1.50
2022-08-06T08:28:25.522Z,1.17
2022-08-06T08:31:20.612Z,1.20
2022-08-06T08:34:13.355Z,1.42
2022-08-06T08:37:18.134Z,1.35
2022-08-06T08:40:05.367Z,1.73
2022-08-06T08:42:55.148Z,2.03
2022-08-06T08:45:44.500Z,1.02
2022-08-06T08:48:29.777Z,1.00
2022-08-06T08:51:19.399Z,1.30
2022-08-06T08:54:01.298Z,1.70
2022-08-06T08:57:11.730Z,1.20
2022-08-06T09:00:00.038Z,1.40
2022-08-06T09:02:49.950Z,1.52
2022-08-06T09:05:25.460Z,1.45
2022-08-06T09:08:18.852Z,1.48
2022-08-06T09:11:20.839Z,1.30
2022-08-06T09:14:12.388Z,1.40
2022-08-06T09:16:56.507Z,1.30
2022-08-06T09:19:41.696Z,1.20
2022-08-06T09:22:23.436Z,1.42
2022-08-06T09:25:07.741Z,2.25
2022-08-06T09:27:54.373Z,1.25
2022-08-06T09:30:30.554Z,1.17
2022-08-06T09:34:29.642Z,1.15
2022-08-06T09:36:30.200Z,1.58
2022-08-06T09:39:23.303Z,1.20
2022-08-06T09:41:58.931Z,1.30
2022-08-06T09:44:45.398Z,1.10
2022-08-06T09:47:33.200Z,1.38
2022-08-06T09:50:23.961Z,1.20
2022-08-06T09:53:14.243Z,1.00
2022-08-06T09:55:58.291Z,1.27
2022-08-06T09:58:47.393Z,1.00
2022-08-06T10:01:43.373Z,1.40
2022-08-06T10:04:36.266Z,1.40
2022-08-06T10:07:11.518Z,1.20
2022-08-06T10:10:04.416Z,1.00
2022-08-06T10:12:38.500Z,0.80
2022-08-06T10:15:57.691Z,0.93
2022-08-06T10:18:56.126Z,1.20
2022-08-06T10:21:52.408Z,1.48
2022-08-06T10:24:42.129Z,1.85
2022-08-06T10:27:36.327Z,5.53
2022-08-06T10:30:24.779Z,3.03
2022-08-06T10:33:22.042Z,2.00
2022-08-06T10:36:08.672Z,1.33
2022-08-06T10:39:03.481Z,1.83
2022-08-06T10:42:02.398Z,1.50
2022-08-06T10:44:49.429Z,1.30
2022-08-06T10:49:01.122Z,1.40
2022-08-06T10:50:39.184Z,1.50
2022-08-06T10:54:01.721Z,1.08
2022-08-06T10:56:39.913Z,1.38
2022-08-06T10:59:25.359Z,1.42
2022-08-06T11:02:32.427Z,1.20
2022-08-06T11:05:18.672Z,1.35
2022-08-06T11:08:24.439Z,1.20
2022-08-06T11:11:26.439Z,1.30
2022-08-06T11:14:14.871Z,1.52
2022-08-06T11:17:08.085Z,1.10
2022-08-06T11:20:14.004Z,1.52
2022-08-06T11:23:01.433Z,1.20
2022-08-06T11:26:01.432Z,1.10
2022-08-06T11:28:55.425Z,1.10
2022-08-06T11:31:57.099Z,1.25
2022-08-06T11:34:52.741Z,3.67
2022-08-06T11:38:03.876Z,1.67
2022-08-06T11:41:10.553Z,1.50
2022-08-06T11:44:04.244Z,1.30
2022-08-06T11:46:48.173Z,0.82
2022-08-06T11:49:31.450Z,0.88
2022-08-06T11:52:41.641Z,0.90
2022-08-06T11:55:25.047Z,0.95
2022-08-06T11:58:23.987Z,1.30
2022-08-06T12:01:33.852Z,1.42
2022-08-06T12:04:10.674Z,1.20
2022-08-06T12:06:50.449Z,1.02
2022-08-06T12:09:40.981Z,1.35
2022-08-06T12:12:38.494Z,2.20
2022-08-06T12:15:52.486Z,1.40
2022-08-06T12:18:29.872Z,0.90
2022-08-06T12:21:19.509Z,1.50
2022-08-06T12:24:00.460Z,1.10
2022-08-06T12:26:41.548Z,1.98
2022-08-06T12:29:23.476Z,1.30
2022-08-06T12:32:56.851Z,0.75
2022-08-06T12:35:38.448Z,1.45
2022-08-06T12:38:24.669Z,1.25
2022-08-06T12:41:10.497Z,1.00
2022-08-06T12:43:57.388Z,1.10
2022-08-06T12:46:39.454Z,1.40
2022-08-06T12:49:20.528Z,1.13
2022-08-06T12:52:30.467Z,1.58
2022-08-06T12:55:13.546Z,1.20
2022-08-06T12:57:59.132Z,1.30
2022-08-06T13:00:41.607Z,1.55
2022-08-06T13:03:25.461Z,1.08
2022-08-06T13:06:08.555Z,1.30
2022-08-06T13:09:10.147Z,1.20
2022-08-06T13:11:51.977Z,1.38
2022-08-06T13:14:32.482Z,2.00
2022-08-06T13:17:55.125Z,1.30
2022-08-06T13:20:32.374Z,1.52
2022-08-06T13:23:22.494Z,1.50
2022-08-06T13:26:09.185Z,1.42
2022-08-06T13:30:31.463Z,1.52
2022-08-06T13:32:27.558Z,1.25
2022-08-06T13:35:22.486Z,1.58
2022-08-06T13:38:17.049Z,1.35
2022-08-06T13:41:04.515Z,1.30
2022-08-06T13:43:53.733Z,1.30
2022-08-06T13:46:43.508Z,1.40
2022-08-06T13:50:02.996Z,1.38
2022-08-06T13:52:57.978Z,1.33
2022-08-06T13:56:02.857Z,2.55
2022-08-06T13:58:42.497Z,1.42
2022-08-06T14:01:20.551Z,2.38
2022-08-06T14:04:08.502Z,1.77
2022-08-06T14:06:49.495Z,3.45
2022-08-06T14:10:09.438Z,1.73
2022-08-06T14:15:27.572Z,1.55
2022-08-06T14:18:08.495Z,1.35
2022-08-06T14:20:49.568Z,1.48
2022-08-06T14:23:40.678Z,1.50
2022-08-06T14:26:30.505Z,1.67
2022-08-06T14:30:22.366Z,1.77
2022-08-06T14:32:12.503Z,2.08
2022-08-06T14:34:53.479Z,2.10
2022-08-06T14:37:49.631Z,1.13
2022-08-06T14:40:59.356Z,1.33
2022-08-06T14:44:13.538Z,1.88
2022-08-06T14:46:54.517Z,1.60
2022-08-06T14:49:51.162Z,2.00
2022-08-06T14:52:32.526Z,1.55
2022-08-06T14:55:22.339Z,2.53
2022-08-06T14:58:09.121Z,1.60
2022-08-06T15:01:03.511Z,1.48
2022-08-06T15:04:10.817Z,1.60
2022-08-06T15:06:58.859Z,1.30
2022-08-06T15:10:05.185Z,1.90
2022-08-06T15:12:51.222Z,1.63
2022-08-06T15:15:50.403Z,1.70
2022-08-06T15:19:10.339Z,1.48
2022-08-06T15:21:39.727Z,1.25
2022-08-06T15:24:42.214Z,1.25
2022-08-06T15:27:27.947Z,1.58
2022-08-06T15:30:16.561Z,1.25
2022-08-06T15:32:57.821Z,1.48
2022-08-06T15:35:57.129Z,1.40
2022-08-06T15:38:41.532Z,1.60
2022-08-06T15:41:42.994Z,1.50
2022-08-06T15:44:41.222Z,1.40
2022-08-06T15:47:15.671Z,1.23
2022-08-06T15:50:05.617Z,1.42
2022-08-06T15:52:43.741Z,2.08
2022-08-06T15:55:31.927Z,1.60
2022-08-06T15:58:10.542Z,1.90
2022-08-06T16:01:04.137Z,1.65
2022-08-06T16:03:56.959Z,2.00
2022-08-06T16:06:47.813Z,2.03
2022-08-06T16:09:28.093Z,2.33
2022-08-06T16:12:16.577Z,1.40
2022-08-06T16:14:57.241Z,1.88
2022-08-06T16:18:06.360Z,1.45
2022-08-06T16:20:55.574Z,2.28
2022-08-06T16:23:57.573Z,1.48
2022-08-06T16:26:50.592Z,1.73
2022-08-06T16:29:26.712Z,1.80
2022-08-06T16:32:13.564Z,1.38
2022-08-06T16:34:49.824Z,1.40
2022-08-06T16:37:44.883Z,1.20
2022-08-06T16:40:32.576Z,1.60
2022-08-06T16:43:21.567Z,1.92
2022-08-06T16:46:14.595Z,1.33
2022-08-06T16:52:41.987Z,1.20
2022-08-06T16:54:44.240Z,1.52
2022-08-06T16:57:25.863Z,1.42
2022-08-06T17:00:59.414Z,1.55
2022-08-06T17:03:42.764Z,1.30
2022-08-06T17:06:26.763Z,1.50
2022-08-06T17:09:16.085Z,1.55
2022-08-06T17:12:06.608Z,1.20
2022-08-06T17:14:52.800Z,1.48
2022-08-06T17:17:40.662Z,1.42
2022-08-06T17:20:28.591Z,1.25
2022-08-06T17:26:35.034Z,2.00
2022-08-06T17:29:09.650Z,1.33
2022-08-06T17:31:58.140Z,1.30
2022-08-06T17:34:40.579Z,1.40
2022-08-06T17:37:44.538Z,1.58
2022-08-06T17:40:40.576Z,1.40
2022-08-06T17:43:56.038Z,1.30
2022-08-06T17:46:36.491Z,1.20
2022-08-06T17:49:34.038Z,1.17
2022-08-06T17:52:10.321Z,2.03
2022-08-06T17:54:58.601Z,1.15
2022-08-06T17:58:02.218Z,1.40
2022-08-06T18:00:48.094Z,2.25
2022-08-06T18:03:23.985Z,1.23
2022-08-06T18:06:30.624Z,1.20
2022-08-06T18:10:11.951Z,1.40
2022-08-06T18:12:13.023Z,1.50
2022-08-06T18:14:53.610Z,1.42
2022-08-06T18:17:47.435Z,1.20
2022-08-06T18:20:41.805Z,1.30
2022-08-06T18:23:29.620Z,1.50
2022-08-06T18:26:09.680Z,1.70
2022-08-06T18:29:06.545Z,1.40
2022-08-06T18:32:00.067Z,1.52
2022-08-06T18:34:52.975Z,1.40
2022-08-06T18:37:30.171Z,1.50
2022-08-06T18:40:38.466Z,1.67
2022-08-06T18:43:12.608Z,1.20
2022-08-06T18:46:00.190Z,1.55
2022-08-06T18:48:34.604Z,1.90
2022-08-06T18:51:22.644Z,1.73
2022-08-06T18:54:01.736Z,2.40
2022-08-06T18:56:52.641Z,1.73
2022-08-06T18:59:29.912Z,1.83
2022-08-06T19:02:23.261Z,1.60
2022-08-06T19:05:00.748Z,1.27
2022-08-06T19:07:49.889Z,1.67
2022-08-06T19:10:27.788Z,1.42
2022-08-06T19:13:15.866Z,1.50
2022-08-06T19:15:55.592Z,1.50
2022-08-06T19:18:45.855Z,1.50
2022-08-06T19:21:26.227Z,1.75
2022-08-06T19:24:35.358Z,2.05
2022-08-06T19:27:08.275Z,1.77
2022-08-06T19:29:58.110Z,2.13
2022-08-06T19:32:36.587Z,2.15
2022-08-06T19:36:06.757Z,1.80
2022-08-06T19:38:18.552Z,1.77
2022-08-06T19:41:09.760Z,1.50
2022-08-06T19:44:26.017Z,1.50
2022-08-06T19:46:56.589Z,1.50
2022-08-06T19:49:40.656Z,1.45
2022-08-06T19:52:28.663Z,1.60
2022-08-06T19:56:08.215Z,1.65
2022-08-06T19:58:26.434Z,2.03
2022-08-06T20:01:31.817Z,1.42
2022-08-06T20:04:19.636Z,1.40
2022-08-06T20:07:34.179Z,1.42
2022-08-06T20:10:35.481Z,1.52
2022-08-06T20:13:10.866Z,1.80
2022-08-06T20:16:03.662Z,1.67
2022-08-06T20:18:40.748Z,1.60
2022-08-06T20:21:43.126Z,1.70
2022-08-06T20:24:18.738Z,1.63
2022-08-06T20:27:09.279Z,1.90
2022-08-06T20:30:05.785Z,1.85
2022-08-06T20:32:53.876Z,1.70
2022-08-06T20:35:37.856Z,1.50
2022-08-06T20:38:33.458Z,1.55
2022-08-06T20:41:58.369Z,1.52
2022-08-06T20:44:29.664Z,1.70
2022-08-06T20:47:48.275Z,1.80
2022-08-06T20:50:28.108Z,1.92
2022-08-06T20:53:15.785Z,1.83
2022-08-06T20:55:49.742Z,1.45
2022-08-06T20:58:37.697Z,1.27
2022-08-06T21:01:19.780Z,1.35
2022-08-06T21:05:16.738Z,1.63
2022-08-06T21:07:08.683Z,1.80
2022-08-06T21:09:54.687Z,1.88
2022-08-06T21:12:35.897Z,1.55
2022-08-06T21:15:54.219Z,1.70
2022-08-06T21:18:47.676Z,1.70
2022-08-06T21:21:31.538Z,1.75
2022-08-06T21:24:12.760Z,1.30
2022-08-06T21:26:57.698Z,2.00
2022-08-06T21:30:09.659Z,2.33
2022-08-06T21:32:45.698Z,1.77
2022-08-06T21:35:26.823Z,1.70
2022-08-06T21:38:24.567Z,1.65
2022-08-06T21:41:55.685Z,1.98
2022-08-06T21:44:27.866Z,1.85
2022-08-06T21:47:19.782Z,1.90
2022-08-06T21:50:25.378Z,1.55
2022-08-06T21:53:45.825Z,1.88
2022-08-06T21:56:37.032Z,1.70
2022-08-06T21:59:10.452Z,1.60
2022-08-06T22:02:11.175Z,1.88
2022-08-06T22:05:07.293Z,1.77
2022-08-06T22:08:07.022Z,1.65
2022-08-06T22:10:52.640Z,1.98
2022-08-06T22:13:50.922Z,1.90
2022-08-06T22:16:41.717Z,1.65
2022-08-06T22:19:15.922Z,1.73
2022-08-06T22:22:02.704Z,1.73
2022-08-06T22:24:41.265Z,1.80
2022-08-06T22:27:41.593Z,2.13
2022-08-06T22:30:33.806Z,1.55
2022-08-06T22:33:25.710Z,1.55
2022-08-06T22:36:11.704Z,2.20
2022-08-06T22:38:53.706Z,2.15
2022-08-06T22:42:05.817Z,2.22
2022-08-06T22:44:36.339Z,1.80
2022-08-06T22:47:36.676Z,2.00
2022-08-06T22:50:16.513Z,1.85
2022-08-06T22:54:30.253Z,3.03
2022-08-06T22:55:58.635Z,1.80
2022-08-06T22:59:04.272Z,2.20
2022-08-06T23:02:05.947Z,1.60
2022-08-06T23:04:47.845Z,2.22
2022-08-06T23:07:27.730Z,2.00
2022-08-06T23:10:24.820Z,1.98
2022-08-06T23:13:12.743Z,1.98
2022-08-06T23:15:58.582Z,1.92
2022-08-06T23:18:46.753Z,2.03
2022-08-06T23:21:59.979Z,2.40
2022-08-06T23:25:03.585Z,2.30
2022-08-06T23:28:04.731Z,2.17
2022-08-06T23:30:52.739Z,2.33
2022-08-06T23:33:38.178Z,2.03
2022-08-06T23:36:33.733Z,1.90
2022-08-06T23:39:19.908Z,1.95
2022-08-06T23:42:21.745Z,2.67
2022-08-06T23:45:02.739Z,2.10
2022-08-06T23:47:54.092Z,2.03
2022-08-06T23:50:37.835Z,1.95
2022-08-06T23:54:07.459Z,2.15
2022-08-06T23:56:41.683Z,2.25
2022-08-06T23:59:44.323Z,2.38
